Overview Statistics Trail Chart Weather Telemetry Raw packets
 

This is the latest recevied weather packets stored in our database for station/object KO4DYK. If no packets are shown the sender has not sent any weather packets the latest 10 day(s).

<< 75 76 77 78 79 80 81 >>
Time Temp. Humidity Pressure Rain* Wind** Luminosity Snow
1788118634 36.11° C 52% 1019.1 hPa 0 mm - 182 W/m² -
1788118328 36.11° C 51% 1019.3 hPa 0 mm - 711 W/m² -
1788118018 35.56° C 51% 1019.4 hPa 0 mm - 718 W/m² -
1788117713 37.78° C 47% 1019.3 hPa 0 mm - 211 W/m² -
1788117409 37.22° C 48% 1019.3 hPa 0 mm - 736 W/m² -
1788117103 35.56° C 51% 1019.3 hPa 0 mm - 748 W/m² -
1788116799 35.56° C 51% 1019.4 hPa 0 mm - 753 W/m² -
1788116493 37.22° C 48% 1019.7 hPa 0 mm - 232 W/m² -
1788116192 36.11° C 51% 1019.5 hPa 0 mm - 713 W/m² -
1788115888 36.67° C 49% 1019.7 hPa 0 mm - 177 W/m² -
1788115586 36.11° C 49% 1019.5 hPa 0 mm - 715 W/m² -
1788115281 37.78° C 47% 1019.6 hPa 0 mm - 743 W/m² -
1788114977 36.11° C 49% 1019.7 hPa 0 mm - 708 W/m² -
1788114672 36.67° C 48% 1019.6 hPa 0 mm - 676 W/m² -
1788114368 36.67° C 50% 1019.6 hPa 0 mm - 661 W/m² -
1788114064 34.44° C 54% 1019.9 hPa 0 mm - 694 W/m² -
1788113760 35° C 54% 1019.9 hPa 0 mm - 684 W/m² -
1788113459 35.56° C 50% 1019.8 hPa 0 mm - 728 W/m² -
1788113158 33.89° C 57% 1020 hPa 0 mm - 756 W/m² -
1788112858 32.78° C 61% 1020.1 hPa 0 mm - 189 W/m² -
1788112556 33.33° C 59% 1020 hPa 0 mm - 157 W/m² -
1788112252 33.89° C 59% 1020.1 hPa 0 mm - 191 W/m² -
1788111948 33.89° C 58% 1020.1 hPa 0 mm - 599 W/m² -
1788111643 33.33° C 60% 1020 hPa 0 mm - 793 W/m² -
1788111338 34.44° C 58% 1020.2 hPa 0 mm - 159 W/m² -

* Rain latest hour (hover to see other rain measurements)
** Current wind speed in m/s (hover to see current wind gust speed)